Freedom, Oklahoma
Current Conditions -  °F | °C
As of 7:15 PM on Friday 28 Nov 2014 (Local Time) from KAVK Reporting Station
Clear Clear  
Wind Chill: 43°   Ceiling: Unl
Heat Index: 48°   Visibility: 10mi
Dew Point: 36°   Wind: 13mph
Humidity: 62%   Direction: 170°S
Pressure: 29.81"   Gusts: NA
Location:  36.77°N, 99.11°W
Report Text: KAVK 290115Z AUTO 17011KT 10SM CLR 09/02 A2981 RMK AO2
Loading
Personal Weather Stations






























Interactive Weather Map New forecast layout! Learn more

10-Day Weather Forecast

Advertisements
Track Severe Weather on mobile